Time;durP1;ratioP1;P1;durP2;ratioP2;P2;SDS_P1;SDS_P2;PMS_P1;PMS_P2;Temp;Humidity;BMP_temperature;BMP_pressure;BME280_temperature;BME280_humidity;BME280_pressure;Samples;Min_cycle;Max_cycle;Signal;HPM_P1;HPM_P2
2023/03/22 00:01:18;;;;;;;6.78;2.67;;;;;;;8.92;100.00;100849.75;5067230;28;20483;-67
2023/03/22 00:03:44;;;;;;;6.22;3.17;;;;;;;8.87;100.00;100840.09;5050443;28;20458;-67
2023/03/22 00:06:10;;;;;;;5.78;2.92;;;;;;;8.83;100.00;100838.19;5056972;28;20446;-67
2023/03/22 00:08:35;;;;;;;6.38;2.85;;;;;;;8.83;100.00;100840.78;5063907;28;20031;-67
2023/03/22 00:11:04;;;;;;;13.05;3.72;;;;;;;8.77;100.00;100837.97;5047446;28;20036;-67
2023/03/22 00:13:31;;;;;;;8.48;3.60;;;;;;;8.75;100.00;100834.44;5063826;28;20392;-67
2023/03/22 00:15:58;;;;;;;4.63;2.92;;;;;;;8.74;100.00;100830.13;5056141;28;20115;-67
2023/03/22 00:18:24;;;;;;;7.30;2.53;;;;;;;8.69;100.00;100832.50;5047377;28;20021;-67
2023/03/22 00:20:56;;;;;;;8.35;2.50;;;;;;;8.66;100.00;100827.22;5047122;28;20244;-67
2023/03/22 00:23:23;;;;;;;6.88;2.92;;;;;;;8.63;100.00;100825.38;5047158;28;20043;-67
2023/03/22 00:25:49;;;;;;;7.40;2.60;;;;;;;8.61;100.00;100820.97;5047402;28;20024;-66
2023/03/22 00:28:15;;;;;;;9.52;3.08;;;;;;;8.57;100.00;100822.56;5046636;28;20377;-67
2023/03/22 00:30:41;;;;;;;5.93;2.60;;;;;;;8.54;100.00;100819.84;5058462;28;20074;-67
2023/03/22 00:33:07;;;;;;;6.72;2.80;;;;;;;8.57;100.00;100808.75;5049054;28;20469;-67
2023/03/22 00:35:32;;;;;;;5.95;3.25;;;;;;;8.54;100.00;100799.16;5047095;28;20025;-67
2023/03/22 00:38:05;;;;;;;8.70;3.22;;;;;;;8.51;100.00;100801.59;5048435;28;20017;-67
2023/03/22 00:40:32;;;;;;;9.43;3.50;;;;;;;8.49;100.00;100792.94;5046772;28;20051;-67
2023/03/22 00:42:57;;;;;;;7.40;3.60;;;;;;;8.47;100.00;100794.56;5048020;28;20587;-66
2023/03/22 00:45:22;;;;;;;10.50;4.22;;;;;;;8.46;100.00;100782.47;5049359;28;20132;-67
2023/03/22 00:47:48;;;;;;;4.60;3.30;;;;;;;8.46;100.00;100791.09;5051346;28;20029;-67
2023/03/22 00:50:13;;;;;;;9.20;3.97;;;;;;;8.46;100.00;100782.47;5051669;28;20025;-67
2023/03/22 00:52:38;;;;;;;6.47;3.60;;;;;;;8.46;100.00;100780.78;5051282;28;20045;-67
2023/03/22 00:55:04;;;;;;;8.55;4.18;;;;;;;8.48;100.00;100780.84;5051628;28;20028;-67
2023/03/22 00:57:29;;;;;;;9.95;4.55;;;;;;;8.49;100.00;100777.44;5037403;28;20021;-67
2023/03/22 00:59:57;;;;;;;9.13;5.63;;;;;;;8.49;100.00;100773.13;5050915;28;20025;-67
2023/03/22 01:02:28;;;;;;;7.22;4.18;;;;;;;8.48;100.00;100770.50;5051104;28;20389;-66
2023/03/22 01:04:53;;;;;;;;;;;;;;;8.46;100.00;100764.38;5050728;28;20087;-67
2023/03/22 01:07:20;;;;;;;7.45;4.18;;;;;;;8.48;100.00;100762.75;5050077;28;20351;-67
2023/03/22 01:09:47;;;;;;;10.23;4.63;;;;;;;8.47;100.00;100764.44;5050536;28;20481;-67
2023/03/22 01:12:13;;;;;;;9.00;4.80;;;;;;;8.48;100.00;100755.00;5050685;28;20025;-67
2023/03/22 01:14:38;;;;;;;7.78;5.10;;;;;;;8.50;100.00;100758.53;5050626;28;20029;-67
2023/03/22 01:17:06;;;;;;;9.90;5.13;;;;;;;8.52;100.00;100762.06;5049740;28;20025;-67
2023/03/22 01:19:31;;;;;;;6.82;5.13;;;;;;;8.53;100.00;100744.03;5050286;28;20032;-67
2023/03/22 01:21:57;;;;;;;12.45;6.05;;;;;;;8.55;100.00;100746.69;5050769;28;20029;-66
2023/03/22 01:24:22;;;;;;;12.57;6.43;;;;;;;8.60;100.00;100734.84;5050833;28;20063;-67
2023/03/22 01:26:47;;;;;;;7.85;6.22;;;;;;;8.60;100.00;100729.69;5049988;28;20029;-67
2023/03/22 01:29:13;;;;;;;11.52;6.97;;;;;;;8.62;100.00;100722.88;5051041;28;20371;-66
2023/03/22 01:31:39;;;;;;;8.68;6.53;;;;;;;8.62;100.00;100715.13;5051282;28;20534;-66
2023/03/22 01:34:04;;;;;;;10.32;6.80;;;;;;;8.64;100.00;100710.03;5050382;28;20035;-67
2023/03/22 01:36:29;;;;;;;12.75;7.25;;;;;;;8.67;100.00;100698.94;5049967;28;20111;-67
2023/03/22 01:38:55;;;;;;;8.77;7.03;;;;;;;8.69;100.00;100692.97;5050532;28;20029;-67
2023/03/22 01:41:20;;;;;;;9.68;7.55;;;;;;;8.71;100.00;100690.44;5050577;28;20377;-67
2023/03/22 01:44:07;;;;;;;9.75;8.07;;;;;;;8.73;100.00;100689.69;5050227;28;20488;-67
2023/03/22 01:46:32;;;;;;;10.70;8.20;;;;;;;8.74;100.00;100678.53;5050109;28;20043;-66
2023/03/22 01:48:58;;;;;;;11.23;7.80;;;;;;;8.79;100.00;100672.66;5051172;28;20208;-67
2023/03/22 01:51:24;;;;;;;10.05;7.80;;;;;;;8.80;100.00;100675.31;5050744;28;20024;-66
2023/03/22 01:54:01;;;;;;;13.23;8.88;;;;;;;8.86;100.00;100669.47;5051061;28;20053;-66
2023/03/22 01:56:30;;;;;;;10.50;8.63;;;;;;;8.86;100.00;100659.16;5038917;28;20026;-66
2023/03/22 01:58:56;;;;;;;11.75;8.50;;;;;;;8.93;100.00;100662.81;5049931;28;20464;-67
2023/03/22 02:01:22;;;;;;;11.98;9.10;;;;;;;8.94;100.00;100649.09;5068910;28;20149;-67
2023/03/22 02:03:53;;;;;;;10.38;8.77;;;;;;;8.99;100.00;100656.16;5068138;28;20407;-67
2023/03/22 02:06:19;;;;;;;11.77;9.60;;;;;;;9.02;100.00;100645.06;5069098;28;20078;-67
2023/03/22 02:08:45;;;;;;;13.48;9.27;;;;;;;9.01;100.00;100653.66;5067394;28;20066;-67
2023/03/22 02:11:18;;;;;;;11.55;8.68;;;;;;;9.03;100.00;100641.63;5068880;28;20036;-67
2023/03/22 02:14:04;;;;;;;11.77;9.85;;;;;;;9.05;100.00;100639.13;5066591;28;20480;-66
2023/03/22 02:16:51;;;;;;;10.27;9.18;;;;;;;9.02;100.00;100639.91;5067187;28;20162;-67
2023/03/22 02:19:54;;;;;;;10.70;9.13;;;;;;;9.03;100.00;100636.47;5068583;28;20021;-67
2023/03/22 02:22:44;;;;;;;11.95;9.13;;;;;;;9.03;100.00;100636.47;5047463;28;20037;-67
2023/03/22 02:25:34;;;;;;;11.70;8.98;;;;;;;9.06;100.00;100636.59;5067748;28;20033;-67
2023/03/22 02:28:12;;;;;;;13.73;9.38;;;;;;;9.04;100.00;100638.25;5067358;28;20511;-67
2023/03/22 02:31:16;;;;;;;10.82;8.90;;;;;;;9.05;100.00;100634.81;5067973;28;20098;-67
2023/03/22 02:34:14;;;;;;;10.88;8.32;;;;;;;9.09;100.00;100631.53;5068409;28;20024;-66
2023/03/22 02:37:22;;;;;;;10.70;7.28;;;;;;;9.09;100.00;100626.34;5067750;28;20028;-67
2023/03/22 02:40:07;;;;;;;10.35;8.63;;;;;;;9.10;100.00;100622.94;5068151;28;20031;-66
2023/03/22 02:42:54;;;;;;;8.23;7.38;;;;;;;9.11;100.00;100619.53;5067511;28;20428;-67
2023/03/22 02:45:29;;;;;;;8.45;7.43;;;;;;;9.13;100.00;100617.00;5067481;28;20032;-67
2023/03/22 02:48:05;;;;;;;8.50;7.10;;;;;;;9.14;100.00;100621.34;5067555;28;20028;-67
2023/03/22 02:50:53;;;;;;;10.02;6.53;;;;;;;9.17;100.00;100618.00;5067383;28;20044;-67
2023/03/22 02:53:40;;;;;;;7.50;6.80;;;;;;;9.16;100.00;100616.22;5067909;28;20139;-67
2023/03/22 02:56:24;;;;;;;9.55;6.70;;;;;;;9.15;100.00;100614.47;5054013;28;20480;-67
2023/03/22 02:58:56;;;;;;;7.15;6.30;;;;;;;9.15;100.00;100610.19;5045004;28;20055;-67
2023/03/22 03:01:24;;;;;;;8.70;6.85;;;;;;;9.12;100.00;100605.78;5058859;28;20024;-67
2023/03/22 03:03:54;;;;;;;8.48;6.53;;;;;;;9.09;100.00;100605.69;5066871;28;20025;-67
2023/03/22 03:06:21;;;;;;;6.25;5.65;;;;;;;9.10;100.00;100597.09;5065468;28;20036;-67
2023/03/22 03:08:52;;;;;;;6.97;6.28;;;;;;;9.11;100.00;100601.44;5066236;28;20039;-67
2023/03/22 03:11:17;;;;;;;8.38;6.25;;;;;;;9.11;100.00;100603.16;5067430;28;20024;-67
2023/03/22 03:13:46;;;;;;;7.25;6.28;;;;;;;9.10;100.00;100588.47;5066393;28;20029;-67
2023/03/22 03:16:16;;;;;;;7.68;5.63;;;;;;;9.10;100.00;100591.91;5067656;28;20020;-67
2023/03/22 03:18:49;;;;;;;8.25;5.90;;;;;;;9.07;100.00;100591.81;5065184;28;20019;-67
2023/03/22 03:21:16;;;;;;;9.25;6.00;;;;;;;9.09;100.00;100591.88;5066158;28;20073;-67
2023/03/22 03:24:01;;;;;;;8.15;5.90;;;;;;;9.09;100.00;100590.16;5067090;28;20056;-67
2023/03/22 03:26:43;;;;;;;7.22;5.65;;;;;;;9.09;100.00;100590.16;5065844;28;20036;-67
2023/03/22 03:29:20;;;;;;;8.52;5.70;;;;;;;9.09;100.00;100586.69;5066527;28;20445;-67
2023/03/22 03:31:53;;;;;;;5.28;4.68;;;;;;;9.07;100.00;100594.41;5066905;28;20028;-67
2023/03/22 03:34:51;;;;;;;6.55;4.68;;;;;;;9.04;100.00;100586.56;5065813;28;20021;-67
2023/03/22 03:37:32;;;;;;;8.00;5.03;;;;;;;9.04;100.00;100583.97;5066458;28;20021;-66
2023/03/22 03:40:07;;;;;;;7.97;5.47;;;;;;;9.03;100.00;100583.91;5044054;28;20040;-67
2023/03/22 03:42:32;;;;;;;9.55;5.28;;;;;;;9.02;100.00;100590.78;5064625;28;20024;-67
2023/03/22 03:44:58;;;;;;;6.38;4.38;;;;;;;9.02;100.00;100583.03;5066662;28;20040;-66
2023/03/22 03:47:24;;;;;;;8.48;4.78;;;;;;;9.02;100.00;100588.19;5064847;28;20111;-67
2023/03/22 03:49:50;;;;;;;4.95;4.07;;;;;;;9.03;100.00;100591.66;5066556;28;20059;-67
2023/03/22 03:52:16;;;;;;;6.05;4.68;;;;;;;9.03;100.00;100581.34;5065705;28;20465;-67
2023/03/22 03:54:41;;;;;;;9.05;5.15;;;;;;;9.02;100.00;100593.38;5066348;28;20489;-66
2023/03/22 03:57:06;;;;;;;5.90;4.40;;;;;;;9.01;100.00;100596.78;5040446;28;20029;-67
2023/03/22 03:59:32;;;;;;;7.88;4.70;;;;;;;8.96;100.00;100594.03;5067726;28;20353;-67
2023/03/22 04:01:57;;;;;;;5.43;4.00;;;;;;;8.99;100.00;100598.44;5066589;28;20073;-67
2023/03/22 04:04:26;;;;;;;5.90;4.65;;;;;;;9.01;100.00;100589.91;5066598;28;20035;-66
2023/03/22 04:06:56;;;;;;;7.20;4.03;;;;;;;8.98;100.00;100591.50;5065837;28;20028;-67
2023/03/22 04:09:27;;;;;;;7.38;4.22;;;;;;;8.94;100.00;100593.09;5067338;28;20388;-66
2023/03/22 04:11:53;;;;;;;6.07;4.60;;;;;;;8.92;100.00;100591.31;5066456;28;20062;-67
2023/03/22 04:14:19;;;;;;;7.97;4.18;;;;;;;8.86;100.00;100587.69;5067227;28;20036;-67
2023/03/22 04:16:44;;;;;;;8.23;4.03;;;;;;;8.85;100.00;100578.16;5066515;28;20232;-66
2023/03/22 04:19:10;;;;;;;8.63;4.40;;;;;;;8.83;100.00;100584.97;5067632;28;20388;-67
2023/03/22 04:21:35;;;;;;;7.03;3.70;;;;;;;8.82;100.00;100580.63;5070228;28;20107;-67
2023/03/22 04:24:01;;;;;;;6.80;3.83;;;;;;;8.80;100.00;100579.69;5070281;28;20078;-67
2023/03/22 04:26:26;;;;;;;7.15;3.83;;;;;;;8.79;100.00;100584.81;5070352;28;20035;-67
2023/03/22 04:28:51;;;;;;;7.88;3.75;;;;;;;8.78;100.00;100568.41;5069982;28;20040;-66
2023/03/22 04:31:17;;;;;;;5.93;3.38;;;;;;;8.77;100.00;100579.59;5069467;28;20021;-67
2023/03/22 04:33:45;;;;;;;8.23;3.88;;;;;;;8.75;100.00;100565.75;5071118;28;20024;-67
2023/03/22 04:36:14;;;;;;;6.75;4.28;;;;;;;8.77;100.00;100569.25;5070662;28;20087;-67
2023/03/22 04:38:40;;;;;;;6.85;3.80;;;;;;;8.74;100.00;100576.91;5070267;28;20040;-66
2023/03/22 04:41:06;;;;;;;9.55;4.47;;;;;;;8.72;100.00;100574.28;5069394;28;20024;-67
2023/03/22 04:43:34;;;;;;;9.20;4.22;;;;;;;8.69;100.00;100568.97;5070347;28;20102;-66
2023/03/22 04:46:03;;;;;;;8.07;3.78;;;;;;;8.67;100.00;100570.63;5069786;28;20439;-67
2023/03/22 04:48:28;;;;;;;6.32;3.20;;;;;;;8.64;100.00;100562.78;5070899;28;20024;-67
2023/03/22 04:50:55;;;;;;;5.60;3.78;;;;;;;8.66;100.00;100563.72;5069641;28;20103;-66
2023/03/22 04:53:26;;;;;;;5.97;3.92;;;;;;;8.66;100.00;100566.28;5069746;28;20070;-67
2023/03/22 04:55:52;;;;;;;6.68;3.30;;;;;;;8.63;100.00;100559.31;5064638;28;20130;-67
2023/03/22 04:58:20;;;;;;;7.68;3.55;;;;;;;8.62;100.00;100562.72;5062014;28;20384;-66
2023/03/22 05:00:47;;;;;;;8.35;4.13;;;;;;;8.64;100.00;100565.34;5070260;28;20024;-66
2023/03/22 05:03:12;;;;;;;5.45;3.67;;;;;;;8.63;100.00;100564.47;5070179;28;20085;-67
2023/03/22 05:05:38;;;;;;;8.25;3.35;;;;;;;8.62;100.00;100557.56;5069336;28;20036;-67
2023/03/22 05:08:06;;;;;;;6.28;3.30;;;;;;;8.62;100.00;100554.97;5070288;28;20531;-67
2023/03/22 05:10:31;;;;;;;7.10;3.38;;;;;;;8.63;100.00;100559.31;5063807;28;20017;-67
2023/03/22 05:12:57;;;;;;;8.30;3.63;;;;;;;8.64;100.00;100557.59;5049821;28;20032;-66
2023/03/22 05:15:22;;;;;;;5.25;3.50;;;;;;;8.62;100.00;100551.50;5050180;28;20021;-66
2023/03/22 05:17:47;;;;;;;8.98;3.75;;;;;;;8.62;100.00;100546.34;5049728;28;20021;-67
2023/03/22 05:20:13;;;;;;;7.30;3.40;;;;;;;8.61;100.00;100553.22;5051076;28;20147;-67
2023/03/22 05:22:39;;;;;;;6.20;3.70;;;;;;;8.61;100.00;100555.81;5050255;28;20091;-67
2023/03/22 05:25:06;;;;;;;4.45;3.13;;;;;;;8.63;100.00;100554.13;5049809;28;20032;-67
2023/03/22 05:27:33;;;;;;;5.88;3.03;;;;;;;8.60;100.00;100543.69;5049437;28;20115;-66
2023/03/22 05:30:00;;;;;;;6.97;2.72;;;;;;;8.60;100.00;100548.00;5049400;28;20021;-67
2023/03/22 05:32:27;;;;;;;6.40;3.10;;;;;;;8.57;100.00;100545.28;5039043;28;20067;-66
2023/03/22 05:34:53;;;;;;;6.30;3.00;;;;;;;8.62;100.00;100552.38;5055497;28;20024;-66
2023/03/22 05:37:19;;;;;;;9.93;3.78;;;;;;;8.63;100.00;100554.13;5059982;28;20055;-67
2023/03/22 05:39:45;;;;;;;8.40;3.03;;;;;;;8.62;100.00;100552.38;5060656;28;20401;-67
2023/03/22 05:42:10;;;;;;;8.05;3.20;;;;;;;8.62;100.00;100547.22;5047702;28;20024;-67
2023/03/22 05:44:36;;;;;;;4.22;2.90;;;;;;;8.65;100.00;100546.47;5059242;28;20326;-67
2023/03/22 05:47:01;;;;;;;6.43;3.08;;;;;;;8.65;100.00;100542.16;5055424;28;20111;-67
2023/03/22 05:49:26;;;;;;;6.90;3.05;;;;;;;8.65;100.00;100541.31;5061743;28;20016;-67
2023/03/22 05:51:52;;;;;;;9.43;2.88;;;;;;;8.67;100.00;100538.78;5057613;28;20040;-67
2023/03/22 05:54:17;;;;;;;7.20;2.90;;;;;;;8.67;100.00;100549.97;5061010;28;20052;-67
2023/03/22 05:56:43;;;;;;;4.45;2.40;;;;;;;8.68;100.00;100550.84;5038527;28;20033;-67
2023/03/22 05:59:08;;;;;;;6.13;2.53;;;;;;;8.69;100.00;100547.47;5048019;28;20397;-66
2023/03/22 06:01:34;;;;;;;6.22;2.10;;;;;;;8.68;100.00;100545.69;5061297;28;20094;-67
2023/03/22 06:03:59;;;;;;;4.88;2.50;;;;;;;8.66;100.00;100548.22;5058187;28;20052;-67
2023/03/22 06:06:26;;;;;;;5.07;2.25;;;;;;;8.67;100.00;100554.28;5058280;28;20111;-67
2023/03/22 06:08:52;;;;;;;4.38;2.42;;;;;;;8.69;100.00;100553.47;5063377;28;20024;-66
2023/03/22 06:11:18;;;;;;;7.45;2.65;;;;;;;8.72;100.00;100553.59;5061672;28;20020;-67
2023/03/22 06:13:43;;;;;;;10.68;2.97;;;;;;;8.76;100.00;100545.13;5063281;28;20035;-67
2023/03/22 06:16:09;;;;;;;4.88;2.35;;;;;;;8.76;100.00;100545.13;5060578;28;20017;-67
2023/03/22 06:18:35;;;;;;;9.00;2.90;;;;;;;8.78;100.00;100552.91;5063476;28;20070;-66
2023/03/22 06:21:00;;;;;;;4.72;2.20;;;;;;;8.76;100.00;100542.53;5061392;28;20025;-67
2023/03/22 06:23:25;;;;;;;7.57;2.83;;;;;;;8.80;100.00;100535.78;5062600;28;20017;-66
2023/03/22 06:25:51;;;;;;;5.47;2.30;;;;;;;8.82;100.00;100544.47;5061102;28;20100;-67
2023/03/22 06:28:16;;;;;;;5.93;2.50;;;;;;;8.82;100.00;100541.88;5061889;28;20031;-66
2023/03/22 06:30:42;;;;;;;8.30;2.88;;;;;;;8.85;100.00;100541.97;5059694;28;20017;-66
2023/03/22 06:33:07;;;;;;;9.10;3.20;;;;;;;8.91;100.00;100543.91;5060577;28;20018;-67
2023/03/22 06:35:32;;;;;;;6.20;2.72;;;;;;;8.94;100.00;100549.16;5059050;28;20104;-67
2023/03/22 06:37:58;;;;;;;7.07;3.10;;;;;;;8.99;100.00;100551.91;5059113;28;20025;-67
2023/03/22 06:40:24;;;;;;;7.97;3.33;;;;;;;9.00;100.00;100544.22;5050962;28;20667;-67
2023/03/22 06:42:49;;;;;;;9.07;3.42;;;;;;;9.02;100.00;100544.25;5033332;28;20036;-67
2023/03/22 06:45:15;;;;;;;6.00;3.30;;;;;;;9.04;100.00;100550.38;5034715;28;20239;-67
2023/03/22 06:47:41;;;;;;;9.15;3.55;;;;;;;9.04;100.00;100549.47;5038290;28;20056;-67
2023/03/22 06:50:07;;;;;;;8.82;2.97;;;;;;;9.05;100.00;100557.28;5033555;28;20032;-67
2023/03/22 06:52:32;;;;;;;5.88;2.60;;;;;;;9.06;100.00;100543.53;5033721;28;20500;-67
2023/03/22 06:54:58;;;;;;;5.78;2.67;;;;;;;9.09;100.00;100543.63;5040918;28;20079;-67
2023/03/22 06:57:23;;;;;;;5.03;2.83;;;;;;;9.10;100.00;100552.28;5040566;28;20025;-67
2023/03/22 06:59:49;;;;;;;6.22;2.72;;;;;;;9.12;100.00;100554.06;5043774;28;20043;-67
2023/03/22 07:02:14;;;;;;;6.30;3.00;;;;;;;9.18;100.00;100542.19;5044895;28;20071;-66
2023/03/22 07:04:39;;;;;;;8.25;2.97;;;;;;;9.26;100.00;100545.91;5049924;28;20040;-66
2023/03/22 07:07:05;;;;;;;8.40;3.25;;;;;;;9.35;100.00;100548.78;5040369;28;20079;-67
2023/03/22 07:09:30;;;;;;;6.45;2.60;;;;;;;9.44;100.00;100544.75;5036058;28;20036;-66
2023/03/22 07:11:56;;;;;;;6.25;2.85;;;;;;;9.50;100.00;100552.69;5053850;28;20024;-66
2023/03/22 07:14:21;;;;;;;6.03;2.90;;;;;;;9.51;100.00;100544.13;5048875;28;20044;-66
2023/03/22 07:16:46;;;;;;;7.60;2.70;;;;;;;9.50;100.00;100539.75;5040767;28;20070;-66
2023/03/22 07:19:11;;;;;;;6.60;2.80;;;;;;;9.51;100.00;100536.34;5039030;28;20352;-66
2023/03/22 07:21:37;;;;;;;7.50;3.20;;;;;;;9.48;100.00;100542.28;5033173;28;20036;-66
2023/03/22 07:24:03;;;;;;;6.18;3.40;;;;;;;9.45;100.00;100542.22;5032973;28;20406;-66
2023/03/22 07:26:29;;;;;;;9.05;4.00;;;;;;;9.49;100.00;100540.59;5029821;28;20540;-66
2023/03/22 07:28:55;;;;;;;5.93;3.58;;;;;;;9.52;100.00;100552.72;5027777;28;20112;-66
2023/03/22 07:31:20;;;;;;;7.20;3.72;;;;;;;9.58;100.00;100546.06;5040270;28;20453;-66
2023/03/22 07:33:47;;;;;;;7.70;3.55;;;;;;;9.64;100.00;100553.16;5038037;28;20079;-67
2023/03/22 07:36:12;;;;;;;8.20;4.00;;;;;;;9.68;100.00;100559.25;5027476;28;20539;-67
2023/03/22 07:38:38;;;;;;;8.43;3.40;;;;;;;9.69;100.00;100550.69;5030970;28;20382;-66
2023/03/22 07:41:04;;;;;;;6.40;4.28;;;;;;;9.70;100.00;100557.59;5036688;28;20029;-66
2023/03/22 07:43:29;;;;;;;6.78;4.57;;;;;;;9.73;100.00;100562.91;5039149;28;20052;-66
2023/03/22 07:45:55;;;;;;;7.50;4.22;;;;;;;9.78;100.00;100553.56;5030877;28;20017;-66
2023/03/22 07:48:22;;;;;;;8.38;3.28;;;;;;;9.83;100.00;100559.75;5038619;28;20068;-66
2023/03/22 07:50:47;;;;;;;8.13;3.28;;;;;;;9.89;100.00;100565.97;5037094;28;20021;-67
2023/03/22 07:53:13;;;;;;;7.30;3.60;;;;;;;9.91;100.00;100559.13;5043352;28;20115;-67
2023/03/22 07:55:41;;;;;;;7.25;3.33;;;;;;;9.96;100.00;100567.91;5044286;28;20032;-66
2023/03/22 07:58:06;;;;;;;6.32;2.85;;;;;;;10.01;100.00;100563.72;5030654;28;20025;-66
2023/03/22 08:00:32;;;;;;;8.05;3.25;;;;;;;10.06;100.00;100562.16;5040988;28;20037;-66
2023/03/22 08:02:57;;;;;;;9.88;2.80;;;;;;;10.17;100.00;100559.00;5040205;28;20026;-67
2023/03/22 08:05:24;;;;;;;8.00;2.97;;;;;;;10.16;100.00;100557.25;5036081;28;20323;-66
2023/03/22 08:07:50;;;;;;;6.30;2.22;;;;;;;10.16;100.00;100558.16;5039841;28;20025;-66
2023/03/22 08:10:16;;;;;;;6.30;2.53;;;;;;;10.15;100.00;100561.56;5039690;28;20136;-66
2023/03/22 08:12:41;;;;;;;4.05;1.90;;;;;;;10.08;100.00;100559.59;5046101;28;20105;-66
2023/03/22 08:15:07;;;;;;;6.70;1.90;;;;;;;10.11;100.00;100564.00;5036438;28;20033;-67
2023/03/22 08:17:33;;;;;;;7.53;1.70;;;;;;;10.14;100.00;100564.97;5039431;28;20014;-66
2023/03/22 08:19:58;;;;;;;7.53;2.65;;;;;;;10.21;100.00;100566.03;5031938;28;20029;-66
2023/03/22 08:22:24;;;;;;;9.23;2.08;;;;;;;10.25;100.00;100578.25;5033655;28;20025;-66
2023/03/22 08:24:50;;;;;;;7.50;2.10;;;;;;;10.26;100.00;100564.44;5034967;28;20018;-67
2023/03/22 08:27:17;;;;;;;7.05;2.40;;;;;;;10.35;100.00;100574.19;5039842;28;20086;-67
2023/03/22 08:29:43;;;;;;;7.55;1.67;;;;;;;10.51;100.00;100572.94;5043977;28;20466;-66
2023/03/22 08:32:08;;;;;;;4.85;2.00;;;;;;;10.61;100.00;100562.84;5038549;28;20026;-67
2023/03/22 08:34:38;;;;;;;5.85;2.10;;;;;;;10.67;100.00;100560.41;5036185;28;20508;-66
2023/03/22 08:37:05;;;;;;;7.82;2.30;;;;;;;10.83;100.00;100566.03;5034901;28;20035;-67
2023/03/22 08:39:31;;;;;;;4.88;1.73;;;;;;;10.93;100.00;100561.13;5035537;28;20056;-67
2023/03/22 08:41:56;;;;;;;6.18;1.45;;;;;;;10.99;100.00;100555.19;5035073;28;20037;-67
2023/03/22 08:44:21;;;;;;;6.47;1.75;;;;;;;10.91;100.00;100555.03;5039384;28;20078;-67
2023/03/22 08:46:46;;;;;;;3.63;1.38;;;;;;;10.90;100.00;100553.25;5048757;28;20027;-67
2023/03/22 08:49:13;;;;;;;5.55;1.73;;;;;;;10.89;100.00;100543.72;5035242;28;20032;-66
2023/03/22 08:51:39;;;;;;;6.82;1.73;;;;;;;10.89;100.00;100556.69;5048444;28;20115;-66
2023/03/22 08:54:04;;;;;;;7.10;1.60;;;;;;;10.92;100.00;100551.56;5045997;28;20147;-65
2023/03/22 08:56:36;;;;;;;7.10;2.05;;;;;;;10.97;100.00;100551.72;5049855;28;20471;-65
2023/03/22 08:59:02;;;;;;;5.75;1.75;;;;;;;10.98;100.00;100543.09;5048875;28;20025;-65
2023/03/22 09:01:27;;;;;;;5.20;1.67;;;;;;;11.07;100.00;100554.53;5051467;28;20040;-65
2023/03/22 09:03:52;;;;;;;6.45;1.83;;;;;;;11.10;100.00;100554.63;5044866;28;20021;-67
2023/03/22 09:06:18;;;;;;;6.72;1.83;;;;;;;11.13;100.00;100540.00;5039995;28;20112;-65
2023/03/22 09:08:43;;;;;;;6.65;1.45;;;;;;;11.17;100.00;100544.41;5034314;28;20017;-65
2023/03/22 09:11:10;;;;;;;5.43;1.40;;;;;;;11.18;100.00;100553.09;5040590;28;20032;-65
2023/03/22 09:13:35;;;;;;;13.77;2.42;;;;;;;11.16;100.00;100536.59;5048536;28;20048;-65
2023/03/22 09:16:00;;;;;;;7.20;1.92;;;;;;;11.17;100.00;100546.16;5047073;28;20576;-65
2023/03/22 09:18:26;;;;;;;6.85;1.88;;;;;;;11.19;100.00;100538.41;5044014;28;20021;-65
2023/03/22 09:20:51;;;;;;;7.20;1.42;;;;;;;11.24;98.91;100526.44;5047459;28;20431;-65
2023/03/22 09:23:17;;;;;;;6.68;2.10;;;;;;;11.33;98.28;100520.59;5045234;28;20024;-67
2023/03/22 09:25:43;;;;;;;5.65;1.63;;;;;;;11.39;98.78;100525.91;5044298;28;20132;-65
2023/03/22 09:28:09;;;;;;;7.85;1.60;;;;;;;11.51;97.43;100536.56;5034948;28;20037;-67
2023/03/22 09:30:35;;;;;;;7.45;1.70;;;;;;;11.57;97.52;100524.56;5040230;28;20036;-66
2023/03/22 09:33:01;;;;;;;7.72;1.83;;;;;;;11.60;97.27;100527.25;5036669;28;20029;-65
2023/03/22 09:35:26;;;;;;;7.95;2.08;;;;;;;11.63;97.09;100524.72;5032837;28;20060;-66
2023/03/22 09:37:53;;;;;;;6.70;1.60;;;;;;;11.67;96.97;100525.66;5041029;28;20182;-65
2023/03/22 09:40:19;;;;;;;5.53;1.38;;;;;;;11.62;95.27;100530.78;5033784;28;20091;-66
2023/03/22 09:42:53;;;;;;;7.20;2.10;;;;;;;11.54;96.03;100520.22;5039043;28;20070;-66
2023/03/22 09:45:31;;;;;;;6.50;1.50;;;;;;;11.51;97.54;100518.41;5036222;28;20270;-66
2023/03/22 09:47:58;;;;;;;4.38;1.25;;;;;;;11.46;97.47;100520.00;5042036;28;20048;-65
2023/03/22 09:50:28;;;;;;;5.53;1.90;;;;;;;11.43;98.26;100530.34;5047340;28;20491;-66
2023/03/22 09:52:54;;;;;;;6.43;2.00;;;;;;;11.43;96.66;100516.47;5046683;28;20413;-65
2023/03/22 09:55:42;;;;;;;6.18;1.60;;;;;;;11.45;96.98;100526.06;5034627;28;20021;-66
2023/03/22 09:58:27;;;;;;;7.50;1.38;;;;;;;11.38;95.67;100526.75;5045082;28;20025;-66
2023/03/22 10:01:05;;;;;;;5.35;1.85;;;;;;;11.38;97.70;100518.97;5054223;28;20047;-66
2023/03/22 10:04:05;;;;;;;8.85;1.90;;;;;;;11.42;97.67;100531.19;5045239;28;20032;-66
2023/03/22 10:06:31;;;;;;;7.45;1.92;;;;;;;11.40;96.68;100523.34;5040821;28;20409;-66
2023/03/22 10:09:19;;;;;;;5.20;1.48;;;;;;;11.35;96.34;100529.28;5046093;28;20029;-66
2023/03/22 10:11:51;;;;;;;5.65;1.75;;;;;;;11.27;96.14;100521.31;5034959;28;20037;-66
2023/03/22 10:14:30;;;;;;;5.53;1.75;;;;;;;11.26;97.20;100523.00;5042725;28;20025;-66
2023/03/22 10:16:57;;;;;;;6.60;1.60;;;;;;;11.25;96.35;100531.66;5043315;28;20107;-65
2023/03/22 10:19:28;;;;;;;8.60;1.90;;;;;;;11.19;96.43;100521.13;5035038;28;20064;-66
2023/03/22 10:21:57;;;;;;;5.47;1.45;;;;;;;11.17;98.10;100522.81;5043949;28;20037;-65
2023/03/22 10:24:30;;;;;;;9.43;1.70;;;;;;;11.15;98.77;100527.09;5043023;28;20044;-66
2023/03/22 10:26:56;;;;;;;8.82;1.77;;;;;;;11.11;99.99;100531.31;5037445;28;20021;-66
2023/03/22 10:29:37;;;;;;;4.88;1.70;;;;;;;11.04;100.00;100535.44;5035256;28;20044;-65
2023/03/22 10:32:16;;;;;;;8.18;1.60;;;;;;;11.00;100.00;100538.81;5029316;28;20469;-66
2023/03/22 10:34:43;;;;;;;5.25;1.20;;;;;;;10.95;100.00;100537.84;5034515;28;20102;-66
2023/03/22 10:37:18;;;;;;;6.07;1.38;;;;;;;10.87;100.00;100541.91;5038071;28;20537;-66
2023/03/22 10:39:48;;;;;;;3.42;1.40;;;;;;;10.86;100.00;100547.94;5031858;28;20057;-66
2023/03/22 10:42:22;;;;;;;6.22;2.03;;;;;;;10.77;100.00;100538.22;5035537;28;20305;-66
2023/03/22 10:44:53;;;;;;;5.53;1.52;;;;;;;10.68;100.00;100551.81;5038755;28;20029;-66
2023/03/22 10:47:25;;;;;;;;;;;;;;;10.62;100.00;100549.03;5040928;28;20044;-65
2023/03/22 10:49:54;;;;;;;5.72;2.08;;;;;;;10.52;100.00;100551.38;5052484;28;19913;-67
2023/03/22 10:52:45;;;;;;;9.00;1.95;;;;;;;10.45;100.00;100541.69;5046917;28;20044;-68
2023/03/22 10:55:12;;;;;;;;;;;;;;;10.36;100.00;100550.03;5043872;28;20045;-66
2023/03/22 10:57:38;;;;;;;7.55;2.03;;;;;;;10.36;100.00;100536.22;5044130;28;20043;-66
2023/03/22 11:00:12;;;;;;;6.07;1.65;;;;;;;10.41;100.00;100540.72;5041538;28;20032;-66
2023/03/22 11:02:51;;;;;;;4.75;1.50;;;;;;;10.43;100.00;100545.94;5040697;28;20056;-66
2023/03/22 11:05:24;;;;;;;6.90;1.85;;;;;;;10.39;100.00;100544.97;5041435;28;20043;-65
2023/03/22 11:07:50;;;;;;;8.30;1.90;;;;;;;10.28;100.00;100546.38;5036614;28;20056;-66
2023/03/22 11:10:18;;;;;;;6.13;1.63;;;;;;;10.27;100.00;100544.63;5044696;28;20436;-66
2023/03/22 11:12:54;;;;;;;6.55;1.88;;;;;;;10.19;100.00;100537.50;5041472;28;20120;-66
2023/03/22 11:15:22;;;;;;;7.05;1.58;;;;;;;10.20;100.00;100548.72;5040503;28;20017;-66
2023/03/22 11:17:48;;;;;;;4.43;1.90;;;;;;;10.14;100.00;100535.63;5041373;28;20029;-66
2023/03/22 11:20:19;;;;;;;5.35;2.47;;;;;;;10.13;100.00;100539.06;5041018;28;20039;-66
2023/03/22 11:22:46;;;;;;;11.50;2.60;;;;;;;10.09;100.00;100544.13;5045318;28;20445;-66
2023/03/22 11:25:19;;;;;;;5.47;2.00;;;;;;;10.13;100.00;100542.50;5043221;28;20025;-65
2023/03/22 11:27:55;;;;;;;5.88;1.90;;;;;;;10.11;100.00;100538.13;5055129;28;20028;-66
2023/03/22 11:30:28;;;;;;;6.18;1.75;;;;;;;10.12;100.00;100534.69;5048912;28;20086;-65
2023/03/22 11:33:08;;;;;;;6.22;2.10;;;;;;;10.13;100.00;100533.88;5066872;28;20101;-66